Time;durP1;ratioP1;P1;durP2;ratioP2;P2;SDS_P1;SDS_P2;PMS_P1;PMS_P2;Temp;Humidity;BMP_temperature;BMP_pressure;BME280_temperature;BME280_humidity;BME280_pressure;Samples;Min_cycle;Max_cycle;Signal;HPM_P1;HPM_P2
2022/12/09 00:00:18;;;;;;;1.27;1.17;;;;;;;3.61;87.36;99002.88;4961339;28;20049;-73
2022/12/09 00:02:47;;;;;;;1.40;1.30;;;;;;;3.60;87.78;99018.00;4994459;28;20125;-72
2022/12/09 00:05:17;;;;;;;2.50;1.23;;;;;;;3.59;87.56;99009.56;4994373;28;20073;-73
2022/12/09 00:07:47;;;;;;;0.70;0.70;;;;;;;3.62;87.50;99011.28;4994422;28;20042;-73
2022/12/09 00:10:16;;;;;;;1.30;1.20;;;;;;;3.64;87.72;99009.66;4994532;28;20034;-73
2022/12/09 00:12:45;;;;;;;1.17;1.13;;;;;;;3.65;87.58;99011.31;4994328;28;20038;-73
2022/12/09 00:15:14;;;;;;;0.93;0.93;;;;;;;3.64;88.17;99007.97;4993396;28;20057;-73
2022/12/09 00:17:42;;;;;;;0.60;0.60;;;;;;;3.64;88.22;99002.94;4994295;28;20051;-73
2022/12/09 00:20:12;;;;;;;0.93;0.93;;;;;;;3.65;87.55;99004.59;4994246;28;20042;-73
2022/12/09 00:22:43;;;;;;;1.42;1.33;;;;;;;3.66;87.71;99002.94;4994289;28;20575;-73
2022/12/09 00:25:13;;;;;;;1.63;1.52;;;;;;;3.63;87.71;99003.75;4945625;28;20042;-73
2022/12/09 00:27:42;;;;;;;1.20;1.08;;;;;;;3.63;87.91;99006.25;4994758;28;20050;-73
2022/12/09 00:30:12;;;;;;;1.00;1.00;;;;;;;3.65;88.45;99001.22;4994023;28;20408;-72
2022/12/09 00:32:41;;;;;;;1.50;1.40;;;;;;;3.58;88.01;98990.19;4961032;28;20042;-73
2022/12/09 00:35:12;;;;;;;3.13;1.48;;;;;;;3.66;88.55;99002.94;4976988;28;20114;-72
2022/12/09 00:37:41;;;;;;;0.33;0.33;;;;;;;3.65;88.30;99001.22;4977339;28;20504;-72
2022/12/09 00:40:10;;;;;;;2.58;1.20;;;;;;;3.64;88.53;99009.66;4976973;28;20050;-72
2022/12/09 00:42:41;;;;;;;2.55;2.35;;;;;;;3.62;88.02;99002.06;4961082;28;20046;-72
2022/12/09 00:45:11;;;;;;;1.75;1.65;;;;;;;3.62;88.71;99007.09;4976341;28;20058;-72
2022/12/09 00:47:40;;;;;;;2.47;2.22;;;;;;;3.61;88.04;98995.31;4994541;28;20065;-72
2022/12/09 00:50:10;;;;;;;1.80;1.70;;;;;;;3.65;88.27;98998.72;4977017;28;20121;-72
2022/12/09 00:52:39;;;;;;;0.65;0.65;;;;;;;3.69;88.37;99003.84;4993967;28;20054;-73
2022/12/09 00:55:08;;;;;;;1.55;1.05;;;;;;;3.69;88.19;99003.00;4976840;28;20039;-71
2022/12/09 00:57:39;;;;;;;1.10;1.05;;;;;;;3.68;88.46;99002.13;4993886;28;20046;-71
2022/12/09 01:00:11;;;;;;;5.97;5.00;;;;;;;3.69;88.29;99005.53;4994209;28;20054;-71
2022/12/09 01:02:39;;;;;;;2.42;1.73;;;;;;;3.67;88.80;99000.44;4993907;28;20042;-71
2022/12/09 01:05:09;;;;;;;1.60;1.50;;;;;;;3.66;88.12;99001.28;4976478;28;20133;-71
2022/12/09 01:07:38;;;;;;;0.90;0.90;;;;;;;3.66;88.41;99003.78;4994122;28;20053;-71
2022/12/09 01:10:08;;;;;;;2.45;2.25;;;;;;;3.65;88.84;98997.03;4960510;28;20038;-71
2022/12/09 01:12:37;;;;;;;0.98;0.98;;;;;;;3.67;88.78;98997.91;4976494;28;20050;-71
2022/12/09 01:15:07;;;;;;;1.37;1.27;;;;;;;3.67;88.39;98995.38;4993738;28;20065;-71
2022/12/09 01:17:38;;;;;;;0.47;0.47;;;;;;;3.69;88.64;98986.19;4993982;28;20137;-71
2022/12/09 01:20:09;;;;;;;4.50;2.13;;;;;;;3.68;88.41;98992.06;4994004;28;20050;-71
2022/12/09 01:22:39;;;;;;;20.95;3.72;;;;;;;3.67;88.37;98985.28;4976678;28;20042;-71
2022/12/09 01:25:09;;;;;;;2.25;1.48;;;;;;;3.68;88.33;98987.00;4994230;28;20066;-71
2022/12/09 01:27:37;;;;;;;;;;;;;;;3.69;88.72;98983.66;4980557;28;20125;-71
2022/12/09 01:30:08;;;;;;;0.90;0.77;;;;;;;3.70;88.99;98985.34;4995937;28;19922;-72
2022/12/09 01:32:39;;;;;;;0.68;0.68;;;;;;;3.70;88.47;98971.88;4997274;28;20069;-72
2022/12/09 01:35:09;;;;;;;0.68;0.68;;;;;;;3.68;88.44;98956.72;4980145;28;20489;-71
2022/12/09 01:37:38;;;;;;;;;;;;;;;3.72;88.91;98948.38;4997497;28;20516;-71
2022/12/09 01:40:11;;;;;;;1.52;1.08;;;;;;;3.71;88.54;98951.72;4995928;28;19922;-72
2022/12/09 01:42:40;;;;;;;1.65;1.52;;;;;;;3.70;88.74;98955.06;4979749;28;20054;-72
2022/12/09 01:45:30;;;;;;;1.63;1.52;;;;;;;3.70;88.81;98949.16;4996652;28;20100;-72
2022/12/09 01:48:03;;;;;;;1.25;1.15;;;;;;;3.68;88.52;98941.59;4979586;28;20053;-72
2022/12/09 01:50:35;;;;;;;2.55;2.33;;;;;;;3.67;88.77;98949.97;4979866;28;20042;-72
2022/12/09 01:53:06;;;;;;;1.65;1.15;;;;;;;3.64;88.47;98955.00;4997227;28;20057;-72
2022/12/09 01:55:36;;;;;;;1.05;1.02;;;;;;;3.65;88.71;98961.72;4979532;28;20492;-72
2022/12/09 01:58:05;;;;;;;2.15;1.95;;;;;;;3.69;88.94;98973.56;4996543;28;20125;-71
2022/12/09 02:00:34;;;;;;;0.45;0.45;;;;;;;3.68;88.83;98964.28;4979951;28;20464;-72
2022/12/09 02:03:07;;;;;;;1.13;1.08;;;;;;;3.70;89.08;98967.69;4996727;28;20065;-72
2022/12/09 02:05:37;;;;;;;0.80;0.80;;;;;;;3.70;89.30;98965.16;4979337;28;20047;-71
2022/12/09 02:08:11;;;;;;;4.43;2.50;;;;;;;3.70;89.12;98970.22;4979143;28;20056;-71
2022/12/09 02:10:54;;;;;;;0.30;0.30;;;;;;;3.68;88.83;98969.34;4996524;28;20038;-71
2022/12/09 02:13:32;;;;;;;2.17;1.98;;;;;;;3.71;89.13;98966.03;4996790;28;20082;-72
2022/12/09 02:16:06;;;;;;;1.05;1.02;;;;;;;3.72;89.06;98963.50;4996793;28;20057;-71
2022/12/09 02:18:41;;;;;;;1.40;1.30;;;;;;;3.73;89.33;98970.25;4996652;28;20420;-72
2022/12/09 02:21:15;;;;;;;1.73;1.42;;;;;;;3.69;88.60;98958.44;4978992;28;20046;-72
2022/12/09 02:23:50;;;;;;;2.67;1.73;;;;;;;3.73;88.78;98957.66;4996658;28;20058;-72
2022/12/09 02:26:25;;;;;;;0.60;0.60;;;;;;;3.72;89.30;98938.28;4996307;28;20046;-71
2022/12/09 02:29:21;;;;;;;1.63;1.52;;;;;;;3.75;88.97;98943.38;4996197;28;20053;-71
2022/12/09 02:32:13;;;;;;;1.15;1.08;;;;;;;3.75;88.98;98950.94;4955010;28;20186;-71
2022/12/09 02:34:51;;;;;;;2.20;1.33;;;;;;;3.75;89.00;98953.47;4996173;28;20074;-71
2022/12/09 02:37:27;;;;;;;0.60;0.60;;;;;;;3.73;88.98;98950.06;4995497;28;20141;-71
2022/12/09 02:40:02;;;;;;;3.63;1.38;;;;;;;3.71;89.17;98946.69;4978602;28;20109;-71
2022/12/09 02:42:36;;;;;;;1.60;1.45;;;;;;;3.70;88.72;98955.06;4978651;28;20049;-71
2022/12/09 02:45:08;;;;;;;0.75;0.75;;;;;;;3.70;89.06;98944.97;4995655;28;20054;-71
2022/12/09 02:47:44;;;;;;;0.85;0.85;;;;;;;3.73;88.94;98940.00;4978527;28;20058;-71
2022/12/09 02:50:20;;;;;;;1.45;1.35;;;;;;;3.73;89.30;98940.00;4978748;28;20117;-71
2022/12/09 02:52:53;;;;;;;1.65;1.55;;;;;;;3.74;89.19;98950.94;4978684;28;20047;-71
2022/12/09 02:55:23;;;;;;;1.88;1.15;;;;;;;3.70;88.90;98949.16;4995711;28;20053;-71
2022/12/09 02:57:58;;;;;;;3.22;2.58;;;;;;;3.70;89.26;98950.03;4978277;28;20047;-71
2022/12/09 03:00:27;;;;;;;0.70;0.70;;;;;;;3.65;88.65;98936.50;4978287;28;20517;-71
2022/12/09 03:02:57;;;;;;;;;;;;;;;3.68;89.24;98939.06;4978946;28;20073;-71
2022/12/09 03:05:38;;;;;;;0.85;0.85;;;;;;;3.68;88.76;98940.75;4995823;28;20000;-71
2022/12/09 03:08:16;;;;;;;0.63;0.63;;;;;;;3.67;89.28;98942.41;4995498;28;20053;-71
2022/12/09 03:10:56;;;;;;;2.30;1.67;;;;;;;3.66;88.79;98943.25;4995594;28;20061;-71
2022/12/09 03:13:45;;;;;;;1.05;1.02;;;;;;;3.66;89.58;98937.34;4995395;28;20058;-71
2022/12/09 03:16:21;;;;;;;0.98;0.95;;;;;;;3.65;89.29;98926.41;4995392;28;20042;-71
2022/12/09 03:18:58;;;;;;;0.95;0.88;;;;;;;3.66;89.54;98923.06;4995372;28;20046;-71
2022/12/09 03:21:29;;;;;;;1.05;0.95;;;;;;;3.66;89.54;98920.53;4995497;28;20066;-71
2022/12/09 03:24:00;;;;;;;4.30;3.08;;;;;;;3.68;89.40;98934.03;4977895;28;20050;-71
2022/12/09 03:26:33;;;;;;;2.15;2.05;;;;;;;3.67;89.64;98939.88;4995143;28;20050;-71
2022/12/09 03:29:07;;;;;;;1.50;1.40;;;;;;;3.68;89.08;98941.59;4995689;28;20053;-71
2022/12/09 03:31:38;;;;;;;2.08;1.90;;;;;;;3.70;89.06;98947.50;4995179;28;20097;-71
2022/12/09 03:34:11;;;;;;;2.55;2.35;;;;;;;3.73;88.88;98949.22;4995318;28;20050;-71
2022/12/09 03:36:43;;;;;;;2.83;1.83;;;;;;;3.73;89.16;98950.06;4977812;28;20057;-71
2022/12/09 03:39:17;;;;;;;2.10;1.90;;;;;;;3.77;89.13;98941.72;4995255;28;20116;-71
2022/12/09 03:41:50;;;;;;;2.63;2.42;;;;;;;3.80;88.92;98946.81;4994657;28;20104;-72
2022/12/09 03:44:25;;;;;;;2.70;2.50;;;;;;;3.80;88.05;98946.81;4994566;28;20054;-71
2022/12/09 03:46:55;;;;;;;1.58;1.48;;;;;;;3.79;88.64;98935.00;4994758;28;20043;-71
2022/12/09 03:49:24;;;;;;;3.53;2.38;;;;;;;3.82;88.45;98930.00;4994795;28;20463;-71
2022/12/09 03:51:58;;;;;;;3.70;2.63;;;;;;;3.84;88.12;98923.31;4994536;28;20042;-71
2022/12/09 03:54:32;;;;;;;1.70;1.60;;;;;;;3.84;87.71;98923.31;4946231;28;20047;-71
2022/12/09 03:57:01;;;;;;;0.77;0.77;;;;;;;3.84;87.88;98933.41;4994943;28;20066;-71
2022/12/09 03:59:34;;;;;;;1.50;1.40;;;;;;;3.88;87.63;98934.31;4995130;28;20050;-71
2022/12/09 04:02:05;;;;;;;1.23;1.05;;;;;;;3.87;87.83;98930.94;4994797;28;20511;-71
2022/12/09 04:04:40;;;;;;;1.30;1.20;;;;;;;3.76;87.09;98913.94;4962127;28;20062;-72
2022/12/09 04:07:11;;;;;;;1.63;1.52;;;;;;;3.88;87.55;98930.13;4994765;28;20039;-72
2022/12/09 04:09:41;;;;;;;2.20;2.03;;;;;;;3.89;87.05;98931.78;4994613;28;20384;-72
2022/12/09 04:12:11;;;;;;;5.22;2.05;;;;;;;3.90;86.58;98932.66;4994277;28;20050;-72
2022/12/09 04:14:39;;;;;;;3.95;2.58;;;;;;;3.90;86.14;98936.03;4994689;28;20046;-72
2022/12/09 04:17:08;;;;;;;4.33;3.33;;;;;;;3.91;86.14;98935.19;4994546;28;20489;-72
2022/12/09 04:19:37;;;;;;;2.45;0.80;;;;;;;3.90;85.72;98936.03;4994561;28;20081;-72
2022/12/09 04:22:06;;;;;;;1.05;1.05;;;;;;;3.95;85.76;98933.56;4994494;28;20046;-72
2022/12/09 04:24:38;;;;;;;4.78;2.20;;;;;;;3.96;85.23;98938.63;4994143;28;20081;-72
2022/12/09 04:27:06;;;;;;;2.40;2.20;;;;;;;3.95;84.99;98928.50;4994180;28;20054;-72
2022/12/09 04:29:35;;;;;;;1.42;1.33;;;;;;;3.94;84.83;98932.69;4994390;28;20397;-72
2022/12/09 04:32:05;;;;;;;2.10;1.67;;;;;;;3.97;85.18;98920.13;4994224;28;20026;-72
2022/12/09 04:34:34;;;;;;;2.45;2.25;;;;;;;3.98;84.55;98926.03;4994357;28;20508;-72
2022/12/09 04:37:03;;;;;;;0.85;0.82;;;;;;;3.98;84.63;98926.84;4994058;28;20034;-72
2022/12/09 04:39:32;;;;;;;2.03;1.83;;;;;;;3.96;84.18;98913.38;4994017;28;20050;-72
2022/12/09 04:42:03;;;;;;;2.97;2.53;;;;;;;4.00;84.77;98911.75;4993877;28;20042;-70
2022/12/09 04:44:31;;;;;;;2.70;2.38;;;;;;;4.01;84.12;98899.13;4993866;28;20067;-71
2022/12/09 04:47:00;;;;;;;1.90;1.70;;;;;;;4.02;84.42;98898.31;4993905;28;20043;-71
2022/12/09 04:49:29;;;;;;;3.47;2.20;;;;;;;4.03;84.00;98892.44;4993906;28;20045;-70
2022/12/09 04:51:58;;;;;;;1.37;1.20;;;;;;;4.03;84.40;98884.84;4993863;28;20060;-71
2022/12/09 04:54:27;;;;;;;1.88;1.73;;;;;;;4.04;84.44;98885.72;4993866;28;20050;-70
2022/12/09 04:56:56;;;;;;;3.88;2.15;;;;;;;4.04;84.25;98879.00;4994242;28;20130;-71
2022/12/09 04:59:27;;;;;;;0.63;0.63;;;;;;;4.03;84.09;98878.97;4994194;28;20121;-70
2022/12/09 05:01:56;;;;;;;2.45;2.25;;;;;;;4.02;83.44;98873.06;4996622;28;20501;-71
2022/12/09 05:04:26;;;;;;;1.23;1.13;;;;;;;4.01;83.56;98871.38;4997676;28;20053;-70
2022/12/09 05:06:56;;;;;;;2.20;2.08;;;;;;;4.02;83.67;98868.03;4998059;28;20460;-71
2022/12/09 05:09:25;;;;;;;;;;;;;;;4.03;83.70;98864.66;4998047;28;20050;-70
2022/12/09 05:11:56;;;;;;;1.75;1.65;;;;;;;4.03;83.32;98868.88;4997913;28;19921;-70
2022/12/09 05:14:27;;;;;;;4.15;1.67;;;;;;;3.99;83.70;98865.47;4997918;28;20050;-70
2022/12/09 05:16:56;;;;;;;3.95;2.78;;;;;;;3.99;83.38;98862.94;4997788;28;20069;-70
2022/12/09 05:19:25;;;;;;;10.23;2.58;;;;;;;3.99;83.55;98862.94;4997803;28;20038;-70
2022/12/09 05:21:53;;;;;;;3.55;2.85;;;;;;;4.00;83.44;98866.31;4997453;28;20133;-71
2022/12/09 05:24:22;;;;;;;0.65;0.65;;;;;;;4.02;83.38;98867.19;4997361;28;20048;-71
2022/12/09 05:26:51;;;;;;;1.45;1.35;;;;;;;4.02;83.42;98867.19;4997364;28;20042;-72
2022/12/09 05:29:20;;;;;;;2.60;2.40;;;;;;;4.04;83.58;98871.41;4997689;28;20109;-70
2022/12/09 05:31:54;;;;;;;2.85;2.65;;;;;;;4.03;83.12;98869.72;4997640;28;20330;-71
2022/12/09 05:34:23;;;;;;;3.15;2.95;;;;;;;4.03;83.49;98872.22;4997143;28;20042;-70
2022/12/09 05:36:52;;;;;;;1.70;1.60;;;;;;;4.03;83.30;98872.22;4997471;28;20448;-70
2022/12/09 05:39:21;;;;;;;2.90;2.65;;;;;;;4.01;83.30;98868.00;4997098;28;20077;-70
2022/12/09 05:41:50;;;;;;;3.55;2.08;;;;;;;4.03;83.71;98878.97;4997326;28;20039;-70
2022/12/09 05:44:20;;;;;;;2.88;1.70;;;;;;;4.00;83.23;98874.75;4996984;28;20054;-71
2022/12/09 05:46:50;;;;;;;1.10;1.02;;;;;;;4.05;83.43;98883.19;4997119;28;20051;-71
2022/12/09 05:49:20;;;;;;;2.67;2.43;;;;;;;4.04;83.49;98881.50;4996954;28;20046;-70
2022/12/09 05:51:49;;;;;;;4.18;2.70;;;;;;;4.04;84.01;98881.50;4997121;28;20376;-70
2022/12/09 05:54:18;;;;;;;0.68;0.68;;;;;;;4.08;84.13;98882.38;4979666;28;20133;-70
2022/12/09 05:56:46;;;;;;;1.42;1.08;;;;;;;4.07;83.57;98888.28;4997056;28;20464;-71
2022/12/09 05:59:16;;;;;;;4.28;3.88;;;;;;;4.07;83.66;98886.59;4997016;28;20129;-70
2022/12/09 06:01:45;;;;;;;6.28;3.47;;;;;;;4.07;83.83;98884.09;4996739;28;20125;-70
2022/12/09 06:04:14;;;;;;;7.13;2.45;;;;;;;4.10;83.69;98879.91;4996673;28;20050;-71
2022/12/09 06:06:45;;;;;;;4.97;2.70;;;;;;;4.10;83.66;98877.38;4996617;28;20050;-70
2022/12/09 06:09:14;;;;;;;4.25;3.80;;;;;;;4.10;83.61;98869.78;4996576;28;20113;-70
2022/12/09 06:11:44;;;;;;;2.15;2.03;;;;;;;4.10;83.41;98867.28;4995984;28;20126;-70
2022/12/09 06:14:12;;;;;;;1.85;1.75;;;;;;;4.07;83.67;98876.50;4995939;28;20093;-70
2022/12/09 06:16:42;;;;;;;2.78;2.58;;;;;;;4.06;83.46;98863.84;4996454;28;20129;-70
2022/12/09 06:19:12;;;;;;;1.90;1.80;;;;;;;4.10;83.75;98859.69;4996551;28;20147;-70
2022/12/09 06:21:42;;;;;;;4.05;0.93;;;;;;;4.12;83.76;98858.88;4996271;28;20054;-70
2022/12/09 06:24:12;;;;;;;;;;;;;;;4.12;83.49;98847.94;4996635;28;20102;-70
2022/12/09 06:26:41;;;;;;;3.13;2.92;;;;;;;4.11;83.39;98847.09;4996085;28;19973;-71
2022/12/09 06:29:10;;;;;;;2.97;2.70;;;;;;;4.12;83.93;98842.88;4996151;28;20496;-70
2022/12/09 06:31:40;;;;;;;2.60;2.40;;;;;;;4.13;83.84;98839.53;4996413;28;20042;-70
2022/12/09 06:34:08;;;;;;;3.60;2.53;;;;;;;4.11;83.26;98841.19;4978728;28;20513;-70
2022/12/09 06:36:37;;;;;;;1.45;1.35;;;;;;;4.11;83.56;98841.19;4995937;28;20046;-72
2022/12/09 06:39:06;;;;;;;3.23;2.27;;;;;;;4.10;83.36;98835.31;4979183;28;20615;-72
2022/12/09 06:41:41;;;;;;;2.92;2.25;;;;;;;4.13;83.64;98842.06;4996051;28;20065;-70
2022/12/09 06:44:11;;;;;;;5.18;3.88;;;;;;;4.05;83.79;98830.19;4995686;28;20061;-70
2022/12/09 06:46:47;;;;;;;4.25;2.78;;;;;;;4.11;83.62;98836.97;4996510;28;20050;-70
2022/12/09 06:49:16;;;;;;;2.83;2.17;;;;;;;4.13;83.40;98834.50;4995691;28;20061;-70
2022/12/09 06:51:45;;;;;;;0.82;0.82;;;;;;;4.17;83.56;98831.16;4996016;28;20489;-70
2022/12/09 06:54:15;;;;;;;2.35;2.20;;;;;;;4.14;83.38;98821.03;4995713;28;20101;-71
2022/12/09 06:56:46;;;;;;;3.47;3.17;;;;;;;4.17;83.59;98821.06;4995934;28;20514;-70
2022/12/09 06:59:15;;;;;;;2.78;2.55;;;;;;;4.19;83.79;98819.41;4996023;28;20050;-70
2022/12/09 07:01:44;;;;;;;1.90;1.77;;;;;;;4.21;83.67;98817.72;4995458;28;20093;-70
2022/12/09 07:04:14;;;;;;;3.05;1.55;;;;;;;4.20;83.28;98821.09;4995555;28;20042;-70
2022/12/09 07:06:45;;;;;;;4.60;1.92;;;;;;;4.22;83.35;98824.50;4978157;28;20374;-71
2022/12/09 07:09:16;;;;;;;0.70;0.70;;;;;;;4.23;83.14;98816.06;4995787;28;20073;-71
2022/12/09 07:11:48;;;;;;;2.50;2.38;;;;;;;4.24;83.43;98817.78;4978458;28;20373;-70
2022/12/09 07:14:18;;;;;;;1.77;1.67;;;;;;;4.24;83.47;98810.19;4995311;28;20085;-70
2022/12/09 07:16:47;;;;;;;3.47;2.30;;;;;;;4.27;83.38;98817.81;4995329;28;20054;-70
2022/12/09 07:19:17;;;;;;;;;;;;;;;4.27;83.56;98818.63;4995860;28;20046;-70
2022/12/09 07:21:46;;;;;;;5.00;3.92;;;;;;;4.24;83.32;98818.63;4995224;28;19922;-70
2022/12/09 07:24:17;;;;;;;3.53;2.92;;;;;;;4.31;83.54;98824.56;4994973;28;20112;-70
2022/12/09 07:26:46;;;;;;;3.03;2.83;;;;;;;4.32;83.45;98826.28;4995373;28;20471;-71
2022/12/09 07:29:17;;;;;;;3.03;2.72;;;;;;;4.31;83.50;98814.47;4995419;28;20041;-72
2022/12/09 07:31:47;;;;;;;4.78;2.88;;;;;;;4.31;83.30;98814.47;4961783;28;20078;-72
2022/12/09 07:34:17;;;;;;;3.03;2.78;;;;;;;4.31;83.27;98811.94;4995407;28;20050;-70
2022/12/09 07:36:46;;;;;;;2.38;2.17;;;;;;;4.31;83.59;98805.22;4995188;28;20074;-70
2022/12/09 07:39:17;;;;;;;3.47;3.17;;;;;;;4.30;83.35;98797.63;4994892;28;20049;-71
2022/12/09 07:41:51;;;;;;;3.70;3.42;;;;;;;4.35;83.33;98806.94;4995115;28;20038;-70
2022/12/09 07:44:21;;;;;;;1.92;1.65;;;;;;;4.36;83.72;98806.13;4994993;28;20145;-70
2022/12/09 07:46:50;;;;;;;4.13;3.78;;;;;;;4.39;83.45;98797.72;4995122;28;20054;-70
2022/12/09 07:49:19;;;;;;;2.50;2.30;;;;;;;4.39;83.43;98792.69;4994640;28;20073;-71
2022/12/09 07:51:48;;;;;;;1.77;1.67;;;;;;;4.40;83.80;98789.28;4994932;28;20447;-70
2022/12/09 07:54:19;;;;;;;2.05;1.67;;;;;;;4.42;83.35;98782.56;4994498;28;20287;-71
2022/12/09 07:56:48;;;;;;;4.97;4.57;;;;;;;4.42;83.46;98777.53;4994971;28;20042;-70
2022/12/09 07:59:18;;;;;;;4.53;2.45;;;;;;;4.44;83.06;98781.75;4994824;28;20096;-70
2022/12/09 08:01:48;;;;;;;2.38;2.20;;;;;;;4.47;83.30;98780.94;4994455;28;20129;-70
2022/12/09 08:04:17;;;;;;;5.38;3.20;;;;;;;4.49;83.04;98781.78;4994552;28;20054;-70
2022/12/09 08:06:47;;;;;;;1.42;1.33;;;;;;;4.49;82.63;98780.13;4996423;28;20053;-69
2022/12/09 08:09:16;;;;;;;0.80;0.80;;;;;;;4.50;82.87;98776.78;5002944;28;20069;-70
2022/12/09 08:11:45;;;;;;;1.30;1.20;;;;;;;4.55;82.80;98784.38;4994608;28;20460;-70
2022/12/09 08:14:14;;;;;;;2.42;2.22;;;;;;;4.57;82.60;98788.63;4994722;28;20060;-71
2022/12/09 08:16:43;;;;;;;1.88;1.70;;;;;;;4.60;82.62;98785.28;5010140;28;20469;-70
2022/12/09 08:19:14;;;;;;;0.77;0.77;;;;;;;4.61;82.40;98786.97;4999605;28;20072;-71
2022/12/09 08:21:43;;;;;;;4.00;2.47;;;;;;;4.60;82.14;98782.75;5003329;28;20500;-70
2022/12/09 08:24:18;;;;;;;1.00;1.00;;;;;;;4.65;81.97;98796.28;5005257;28;20046;-70
2022/12/09 08:26:50;;;;;;;1.27;1.17;;;;;;;4.64;81.76;98789.50;5013655;28;20552;-71
2022/12/09 08:29:19;;;;;;;4.22;2.35;;;;;;;4.69;81.73;98792.94;5007311;28;20046;-71
2022/12/09 08:31:49;;;;;;;1.77;1.67;;;;;;;4.69;81.80;98792.94;4996197;28;20050;-70
2022/12/09 08:34:19;;;;;;;1.50;1.40;;;;;;;4.66;82.16;98783.63;4994026;28;20050;-71
2022/12/09 08:36:48;;;;;;;2.28;1.73;;;;;;;4.69;82.13;98787.88;4996149;28;20527;-70
2022/12/09 08:39:17;;;;;;;1.90;1.80;;;;;;;4.70;81.98;98787.06;5009952;28;20034;-71
2022/12/09 08:41:47;;;;;;;2.97;2.70;;;;;;;4.68;81.96;98781.97;5013417;28;20080;-70
2022/12/09 08:44:18;;;;;;;5.47;5.00;;;;;;;4.71;82.15;98776.09;5009073;28;20074;-70
2022/12/09 08:46:49;;;;;;;10.23;3.60;;;;;;;4.70;82.08;98774.41;4999198;28;20559;-71
2022/12/09 08:49:21;;;;;;;3.65;3.38;;;;;;;4.70;82.16;98765.13;5000974;28;20038;-70
2022/12/09 08:51:52;;;;;;;4.50;4.13;;;;;;;4.72;82.47;98762.63;4994294;28;20053;-70
2022/12/09 08:54:22;;;;;;;7.85;2.60;;;;;;;4.75;82.43;98762.66;4994164;28;20085;-71
2022/12/09 08:56:53;;;;;;;3.10;2.53;;;;;;;4.79;82.48;98768.56;4979584;28;20073;-71
2022/12/09 08:59:23;;;;;;;0.57;0.57;;;;;;;4.80;82.08;98772.81;5004700;28;20046;-70
2022/12/09 09:01:52;;;;;;;2.25;1.30;;;;;;;4.82;82.06;98769.47;5013852;28;20416;-69
2022/12/09 09:04:23;;;;;;;2.90;1.20;;;;;;;4.84;82.04;98767.78;5013457;28;20038;-70
2022/12/09 09:06:53;;;;;;;0.98;0.98;;;;;;;4.84;81.79;98765.25;5013407;28;20061;-70
2022/12/09 09:09:22;;;;;;;;;;;;;;;4.82;81.60;98756.81;5007040;28;20054;-71
2022/12/09 09:11:52;;;;;;;2.42;2.25;;;;;;;4.83;81.65;98750.91;5006861;28;19935;-72
2022/12/09 09:14:20;;;;;;;1.58;1.42;;;;;;;4.85;81.61;98749.25;5003489;28;20065;-71
2022/12/09 09:16:49;;;;;;;2.20;2.03;;;;;;;4.83;81.47;98750.91;5002045;28;20073;-70
2022/12/09 09:19:21;;;;;;;3.03;2.63;;;;;;;4.83;81.38;98750.91;5001116;28;20801;-72
2022/12/09 09:21:52;;;;;;;4.80;3.50;;;;;;;4.82;81.40;98754.28;5008338;28;20280;-70
2022/12/09 09:24:24;;;;;;;4.18;2.80;;;;;;;4.85;81.61;98749.25;4995610;28;20050;-69
2022/12/09 09:26:53;;;;;;;1.67;1.38;;;;;;;4.84;81.53;98747.56;5013248;28;20069;-71
2022/12/09 09:29:24;;;;;;;3.00;2.72;;;;;;;4.84;81.78;98742.50;5013473;28;20491;-71
2022/12/09 09:31:53;;;;;;;19.58;1.60;;;;;;;4.88;81.35;98744.22;5006850;28;20382;-70
2022/12/09 09:34:25;;;;;;;0.77;0.77;;;;;;;4.92;81.48;98745.91;5002499;28;20129;-70
2022/12/09 09:36:57;;;;;;;0.50;0.50;;;;;;;4.91;81.92;98729.06;5002613;28;20069;-71
2022/12/09 09:39:26;;;;;;;1.95;1.58;;;;;;;4.96;81.97;98729.94;5008758;28;20136;-71
2022/12/09 09:41:57;;;;;;;1.30;1.20;;;;;;;4.97;82.00;98729.09;5002335;28;20045;-70
2022/12/09 09:44:38;;;;;;;0.50;0.50;;;;;;;4.94;82.07;98721.50;5002205;28;20074;-70
2022/12/09 09:47:16;;;;;;;2.13;1.95;;;;;;;5.00;81.95;98729.13;5004777;28;20488;-71
2022/12/09 09:49:50;;;;;;;1.83;1.65;;;;;;;5.02;82.19;98717.31;5001897;28;20540;-71
2022/12/09 09:52:22;;;;;;;1.13;0.95;;;;;;;5.01;82.32;98720.72;4996736;28;20073;-70
2022/12/09 09:54:52;;;;;;;1.80;1.70;;;;;;;4.98;82.26;98705.50;5006777;28;20050;-69
2022/12/09 09:57:29;;;;;;;0.50;0.50;;;;;;;4.97;82.22;98696.22;5005351;28;20042;-71
2022/12/09 10:00:07;;;;;;;3.92;2.42;;;;;;;5.00;82.43;98690.34;5001011;28;20046;-71
2022/12/09 10:02:57;;;;;;;2.08;1.95;;;;;;;5.00;82.46;98683.63;4996536;28;20477;-71
2022/12/09 10:05:30;;;;;;;1.35;1.25;;;;;;;5.00;82.73;98670.13;4996999;28;20049;-70
2022/12/09 10:08:22;;;;;;;1.67;1.48;;;;;;;5.00;82.79;98663.38;4996910;28;20508;-70
2022/12/09 10:11:02;;;;;;;0.40;0.40;;;;;;;4.97;83.13;98658.31;4996664;28;20055;-71
2022/12/09 10:13:44;;;;;;;3.17;2.50;;;;;;;4.97;83.13;98658.31;4996548;28;20058;-71
2022/12/09 10:16:17;;;;;;;0.95;0.93;;;;;;;4.99;83.20;98649.03;4996366;28;20050;-72
2022/12/09 10:19:02;;;;;;;0.70;0.70;;;;;;;4.96;83.29;98641.47;4979289;28;20058;-71
2022/12/09 10:21:41;;;;;;;1.85;1.75;;;;;;;4.89;83.42;98629.63;4979634;28;20413;-72
2022/12/09 10:24:23;;;;;;;1.80;1.67;;;;;;;4.91;83.54;98632.16;5011530;28;20057;-72
2022/12/09 10:27:00;;;;;;;5.28;2.53;;;;;;;4.90;83.91;98633.84;4993769;28;20145;-73
2022/12/09 10:29:46;;;;;;;1.55;1.45;;;;;;;4.86;83.95;98619.50;5011714;28;20041;-71
2022/12/09 10:32:18;;;;;;;1.15;1.10;;;;;;;4.87;84.18;98615.31;5015744;28;20053;-71
2022/12/09 10:34:48;;;;;;;2.00;1.85;;;;;;;4.87;84.50;98611.06;5012978;28;20049;-71
2022/12/09 10:37:29;;;;;;;8.38;3.08;;;;;;;4.84;84.55;98600.97;5002387;28;20093;-71
2022/12/09 10:40:19;;;;;;;1.08;1.02;;;;;;;4.83;84.85;98599.25;4995939;28;20056;-70
2022/12/09 10:45:29;;;;;;;2.63;2.45;;;;;;;4.81;85.16;98585.78;4998905;28;20050;-71
2022/12/09 10:48:28;;;;;;;3.28;1.27;;;;;;;4.80;85.15;98576.50;4995994;28;20484;-71
2022/12/09 10:51:05;;;;;;;1.95;1.85;;;;;;;4.83;85.57;98571.47;4983339;28;20073;-70
2022/12/09 10:53:36;;;;;;;2.70;1.95;;;;;;;4.81;85.45;98555.44;5000513;28;20072;-70
2022/12/09 10:56:06;;;;;;;2.30;2.13;;;;;;;4.82;85.70;98564.75;4995542;28;20046;-71
2022/12/09 10:58:35;;;;;;;4.25;1.90;;;;;;;4.83;85.76;98558.81;4995007;28;20060;-71
2022/12/09 11:01:08;;;;;;;2.47;2.05;;;;;;;4.83;86.05;98558.81;5008164;28;20541;-71
2022/12/09 11:03:40;;;;;;;2.35;1.35;;;;;;;4.75;86.18;98555.44;5014351;28;20057;-71
2022/12/09 11:06:22;;;;;;;2.03;1.85;;;;;;;4.86;86.52;98560.53;5005706;28;20096;-70
2022/12/09 11:08:55;;;;;;;3.30;3.00;;;;;;;4.83;86.28;98556.31;4997613;28;20492;-71
2022/12/09 11:11:43;;;;;;;5.65;1.50;;;;;;;4.80;86.76;98558.81;5015053;28;20046;-70
2022/12/09 11:14:25;;;;;;;3.92;1.88;;;;;;;4.84;86.76;98560.53;5012484;28;20041;-70
2022/12/09 11:16:56;;;;;;;1.05;1.02;;;;;;;4.77;86.50;98543.66;5014793;28;20048;-70
2022/12/09 11:19:33;;;;;;;2.53;1.20;;;;;;;4.79;87.18;98544.50;5014861;28;20492;-70
2022/12/09 11:22:23;;;;;;;1.02;0.98;;;;;;;4.82;87.04;98548.72;5014745;28;20056;-71
2022/12/09 11:24:54;;;;;;;2.33;1.58;;;;;;;4.79;87.09;98543.66;5014711;28;20056;-70
2022/12/09 11:27:30;;;;;;;0.95;0.95;;;;;;;4.84;87.64;98545.38;5014835;28;20046;-70
2022/12/09 11:30:08;;;;;;;1.38;1.05;;;;;;;4.82;87.53;98536.94;5014659;28;20061;-70
2022/12/09 11:32:57;;;;;;;1.30;1.20;;;;;;;4.85;87.66;98536.94;5014727;28;20054;-71
2022/12/09 11:35:34;;;;;;;1.27;1.20;;;;;;;4.78;87.85;98530.16;5013534;28;20038;-70
2022/12/09 11:38:15;;;;;;;3.30;3.00;;;;;;;4.78;88.07;98530.16;5005183;28;20039;-70
2022/12/09 11:40:44;;;;;;;2.90;2.10;;;;;;;4.80;88.07;98533.53;5014896;28;20124;-70
2022/12/09 11:43:14;;;;;;;1.25;1.15;;;;;;;4.83;88.30;98525.97;5014355;28;20048;-70
2022/12/09 11:45:45;;;;;;;1.75;1.50;;;;;;;4.84;88.34;98522.63;5014266;28;20104;-70
2022/12/09 11:48:23;;;;;;;0.70;0.70;;;;;;;4.87;88.34;98520.06;5014396;28;20046;-71
2022/12/09 11:51:02;;;;;;;1.75;1.65;;;;;;;4.88;88.38;98505.75;5014597;28;20452;-70
2022/12/09 11:53:34;;;;;;;1.38;1.27;;;;;;;4.88;88.64;98498.19;4996540;28;20050;-70
2022/12/09 11:56:10;;;;;;;0.70;0.70;;;;;;;4.85;88.58;98496.47;5005825;28;20065;-70
2022/12/09 11:58:47;;;;;;;0.82;0.82;;;;;;;4.88;88.63;98480.50;4994707;28;20042;-71
2022/12/09 12:01:23;;;;;;;0.90;0.90;;;;;;;4.88;89.02;98476.28;4994545;28;20050;-70
2022/12/09 12:03:56;;;;;;;3.47;3.08;;;;;;;4.90;88.74;98464.50;5008439;28;20437;-70
2022/12/09 12:06:29;;;;;;;1.63;1.52;;;;;;;4.91;88.84;98467.88;5014057;28;20049;-71
2022/12/09 12:09:04;;;;;;;1.55;1.45;;;;;;;4.87;89.33;98464.47;5013980;28;20074;-70